Huvudsida
METAR-TAF:

METAR-TAF

Flygplatser :

Jizan, Saudiarabien

latitud: 16-54N, longitud: 042-35E, höjd: 6 m

Aktuellt väderrapport

Denna rapport gjordes för 43 minuter sedan, klockan 22:00 UTC
Vind 5 kt från nord
Temperatur 26°C
Fuktighet 84%
Tryck 1012 hPa
Sikt 10 km eller mer
Spridda moln på en höjd av 3000 ft

METAR: OEGN 192200Z 35005KT 9999 SCT030 26/23 Q1012 NOSIG

Tid: 01:43 (22:43 UTC)

Väderprognos

Denna rapport gjordes för 11 timmar och 43 minuter sedan, klockan 11:00 UTC
Prognos gäller från 19 kl. 12 UTC till 20 kl. 18 UTC
Vind 14 kt från syd/sydväst
Sikt: 7000 m
Spridda moln på en höjd av 3000 ft
Blir
från 19 kl. 20 UTC till 19 kl. 22 UTC
Vind 3 kt varierande vindriktning

TAF: OEGN 191100Z 1912/2018 20014KT 7000 SCT030 BECMG 1920/1922 VRB03KT

Aktuella väderrapporter och prognoser från 4000 flygplatser (METAR- och TAF-rapporter).

De tillgängliga stationerna syns som gula och röda prickar på kartan.

För musen över prickarna för att se namnen på stationerna.

Klicka sedan för att få väderrapporter och prognoser.

För att ändra kartan: Klicka på de gröna knapparna med ett svart kors på för att zooma in; den gröna knappen med ett streck på för att zooma ut; eller på de gröna pilarna för angränsande kartor.


METAR-TAF: